Time;durP1;ratioP1;P1;durP2;ratioP2;P2;SDS_P1;SDS_P2;PMS_P1;PMS_P2;Temp;Humidity;BMP_temperature;BMP_pressure;BME280_temperature;BME280_humidity;BME280_pressure;Samples;Min_cycle;Max_cycle;Signal;HPM_P1;HPM_P2
2021/07/02 00:02:43;;;;;;;12.13;5.22;;;;;;;0.01;0.00;59042.03;10314519;28;20068;-59
2021/07/02 00:07:42;;;;;;;14.95;5.50;;;;;;;0.01;0.00;59042.03;10314911;28;20092;-59
2021/07/02 00:12:41;;;;;;;8.52;4.50;;;;;;;0.01;0.00;59042.03;10314326;28;20509;-59
2021/07/02 00:17:42;;;;;;;15.05;5.28;;;;;;;0.01;0.00;59042.03;10314658;28;20421;-59
2021/07/02 00:22:41;;;;;;;11.95;5.18;;;;;;;0.01;0.00;59042.03;10314476;28;20045;-58
2021/07/02 00:27:40;;;;;;;5.68;5.05;;;;;;;0.01;0.00;59042.03;10315579;28;20091;-59
2021/07/02 00:32:39;;;;;;;9.68;4.80;;;;;;;0.01;0.00;59042.03;10320275;28;20090;-59
2021/07/02 00:37:40;;;;;;;6.78;5.20;;;;;;;0.01;0.00;59042.03;10313663;28;20472;-59
2021/07/02 00:42:39;;;;;;;9.23;5.32;;;;;;;0.01;0.00;59042.03;10299710;28;20060;-59
2021/07/02 00:47:39;;;;;;;15.05;5.05;;;;;;;0.01;0.00;59042.03;10261844;28;20053;-59
2021/07/02 00:52:38;;;;;;;11.35;5.32;;;;;;;0.01;0.00;59042.03;10280986;28;20041;-59
2021/07/02 00:57:40;;;;;;;10.57;5.03;;;;;;;0.01;0.00;59042.03;10262471;28;20064;-58
2021/07/02 01:02:39;;;;;;;10.77;5.93;;;;;;;0.01;0.00;59042.03;10261757;28;20533;-58
2021/07/02 01:07:41;;;;;;;10.65;5.45;;;;;;;0.01;0.00;59042.03;10260939;28;20084;-59
2021/07/02 01:12:42;;;;;;;14.30;6.28;;;;;;;0.01;0.00;59042.03;10261985;28;20414;-59
2021/07/02 01:17:41;;;;;;;13.45;5.63;;;;;;;0.01;0.00;59042.03;10261868;28;20049;-59
2021/07/02 01:22:42;;;;;;;12.13;6.60;;;;;;;0.01;0.00;59042.03;10278805;28;20083;-58
2021/07/02 01:27:41;;;;;;;19.92;7.47;;;;;;;0.01;0.00;59042.03;10260635;28;20049;-59
2021/07/02 01:32:41;;;;;;;18.88;5.97;;;;;;;0.01;0.00;59042.03;10260824;28;20056;-58
2021/07/02 01:37:41;;;;;;;16.10;6.72;;;;;;;0.01;0.00;59042.03;10260847;28;20045;-59
2021/07/02 01:42:42;;;;;;;23.77;7.07;;;;;;;0.01;0.00;59042.03;10259951;28;20056;-59
2021/07/02 01:47:42;;;;;;;15.30;6.35;;;;;;;0.01;0.00;59042.03;10259952;28;20072;-58
2021/07/02 01:52:43;;;;;;;18.02;6.90;;;;;;;0.01;0.00;59042.03;10277945;28;20053;-59
2021/07/02 01:57:43;;;;;;;14.32;6.90;;;;;;;0.01;0.00;59042.03;10259841;28;20052;-59
2021/07/02 02:02:46;;;;;;;13.18;6.45;;;;;;;0.01;0.00;59042.03;10259191;28;20060;-58
2021/07/02 02:07:51;;;;;;;24.42;6.97;;;;;;;0.01;0.00;59042.03;10277539;28;20532;-59
2021/07/02 02:12:50;;;;;;;16.73;7.63;;;;;;;0.01;0.00;59042.03;10259592;28;20049;-56
2021/07/02 02:17:49;;;;;;;11.50;6.35;;;;;;;0.01;0.00;59042.03;10259429;28;20147;-56
2021/07/02 02:22:48;;;;;;;20.88;7.57;;;;;;;0.01;0.00;59042.03;10277082;28;20839;-56
2021/07/02 02:27:50;;;;;;;12.95;6.20;;;;;;;0.01;0.00;59042.03;10258134;28;20048;-56
2021/07/02 02:32:49;;;;;;;17.05;6.00;;;;;;;0.01;0.00;59042.03;10275471;28;20060;-56
2021/07/02 02:37:56;;;;;;;11.68;5.95;;;;;;;0.01;0.00;59042.03;10258072;28;20061;-55
2021/07/02 02:42:56;;;;;;;12.30;6.05;;;;;;;0.01;0.00;59042.03;10258424;28;20045;-57
2021/07/02 02:47:56;;;;;;;10.75;6.65;;;;;;;0.01;0.00;59042.03;10257616;28;20068;-54
2021/07/02 02:52:54;;;;;;;15.75;6.85;;;;;;;0.01;0.00;59042.03;10274757;28;20053;-56
2021/07/02 02:57:55;;;;;;;12.57;7.13;;;;;;;0.01;0.00;59042.03;10257941;28;20051;-56
2021/07/02 03:02:55;;;;;;;15.93;7.20;;;;;;;0.01;0.00;59042.03;10255851;28;20056;-54
2021/07/02 03:08:07;;;;;;;15.57;7.68;;;;;;;0.01;0.00;59042.03;10271256;28;20084;-55
2021/07/02 03:13:16;;;;;;;11.88;6.72;;;;;;;0.01;0.00;59042.03;10273298;28;20072;-56
2021/07/02 03:18:15;;;;;;;21.42;7.18;;;;;;;0.01;0.00;59042.03;10252800;28;20083;-54
2021/07/02 03:23:14;;;;;;;13.43;5.80;;;;;;;0.01;0.00;59042.03;10246439;28;20041;-56
2021/07/02 03:28:14;;;;;;;16.23;7.18;;;;;;;0.01;0.00;59042.03;10271747;28;20068;-55
2021/07/02 03:33:15;;;;;;;18.50;7.95;;;;;;;0.01;0.00;59042.03;10273276;28;20069;-53
2021/07/02 03:38:14;;;;;;;15.40;6.50;;;;;;;0.01;0.00;59042.03;10253952;28;20482;-56
2021/07/02 03:43:13;;;;;;;14.20;7.38;;;;;;;0.01;0.00;59042.03;10275751;28;20084;-58
2021/07/02 03:48:13;;;;;;;21.58;6.93;;;;;;;0.01;0.00;59042.03;10296685;28;20091;-57
2021/07/02 03:53:13;;;;;;;10.05;6.93;;;;;;;0.01;0.00;59042.03;10313834;28;20036;-57
2021/07/02 03:58:12;;;;;;;14.80;7.40;;;;;;;0.01;0.00;59042.03;10314938;28;20040;-57
2021/07/02 04:03:11;;;;;;;13.23;6.78;;;;;;;0.01;0.00;59042.03;10314890;28;20048;-58
2021/07/02 04:08:12;;;;;;;15.95;7.60;;;;;;;0.01;0.00;59042.03;10322046;28;20083;-56
2021/07/02 04:13:11;;;;;;;14.82;7.55;;;;;;;0.01;0.00;59042.03;10321578;28;20512;-57
2021/07/02 04:18:10;;;;;;;12.65;7.45;;;;;;;0.01;0.00;59042.03;10322088;28;20040;-57
2021/07/02 04:23:11;;;;;;;8.25;6.65;;;;;;;0.01;0.00;59042.03;10321109;28;20487;-56
2021/07/02 04:28:10;;;;;;;14.90;7.82;;;;;;;0.01;0.00;59042.03;10321515;28;20525;-57
2021/07/02 04:33:09;;;;;;;19.13;8.63;;;;;;;0.01;0.00;59042.03;10317534;28;20079;-57
2021/07/02 04:38:09;;;;;;;15.18;8.27;;;;;;;0.01;0.00;59042.03;10317767;28;20072;-56
2021/07/02 04:43:09;;;;;;;17.23;8.20;;;;;;;0.01;0.00;59042.03;10318030;28;20490;-57
2021/07/02 04:48:07;;;;;;;14.93;9.02;;;;;;;0.01;0.00;59042.03;10301775;28;20166;-58
2021/07/02 04:53:06;;;;;;;18.90;9.35;;;;;;;0.01;0.00;59042.03;10320757;28;20053;-57
2021/07/02 04:58:06;;;;;;;13.55;9.48;;;;;;;0.01;0.00;59042.03;10320605;28;20490;-57
2021/07/02 05:03:07;;;;;;;12.93;8.57;;;;;;;0.01;0.00;59042.03;10320726;28;20067;-57
2021/07/02 05:08:06;;;;;;;18.27;11.50;;;;;;;0.01;0.00;59042.03;10319778;28;20091;-57
2021/07/02 05:13:06;;;;;;;22.42;10.18;;;;;;;0.01;0.00;59042.03;10320105;28;20505;-57
2021/07/02 05:18:06;;;;;;;15.30;10.57;;;;;;;0.01;0.00;59042.03;10319202;28;20052;-57
2021/07/02 05:23:05;;;;;;;16.35;11.50;;;;;;;0.01;0.00;59042.03;10320532;28;20056;-57
2021/07/02 05:28:04;;;;;;;12.48;10.23;;;;;;;0.01;0.00;59042.03;10318896;28;20083;-57
2021/07/02 05:33:03;;;;;;;30.15;27.00;;;;;;;0.01;0.00;59042.03;10319517;28;20048;-57
2021/07/02 05:38:03;;;;;;;13.07;9.52;;;;;;;0.01;0.00;59042.03;10318737;28;20486;-57
2021/07/02 05:43:02;;;;;;;12.52;8.85;;;;;;;0.01;0.00;59042.03;10319016;28;20394;-57
2021/07/02 05:48:02;;;;;;;12.80;9.10;;;;;;;0.01;0.00;59042.03;10318244;28;20087;-57
2021/07/02 05:53:01;;;;;;;14.70;9.45;;;;;;;0.01;0.00;59042.03;10319363;28;20079;-57
2021/07/02 05:58:01;;;;;;;13.02;9.00;;;;;;;0.01;0.00;59042.03;10318598;28;20040;-57
2021/07/02 06:03:00;;;;;;;9.48;7.63;;;;;;;0.01;0.00;59042.03;10318440;28;20041;-57
2021/07/02 06:07:58;;;;;;;13.32;7.45;;;;;;;0.01;0.00;59042.03;10318274;28;20291;-57
2021/07/02 06:12:58;;;;;;;14.27;7.28;;;;;;;0.01;0.00;59042.03;10317875;28;20057;-56
2021/07/02 06:18:06;;;;;;;12.00;6.53;;;;;;;0.01;0.00;59042.03;10317924;28;20115;-57
2021/07/02 06:23:05;;;;;;;7.82;6.43;;;;;;;0.01;0.00;59042.03;10317900;28;20075;-56
2021/07/02 06:28:04;;;;;;;10.00;5.93;;;;;;;0.01;0.00;59042.03;10316775;28;20072;-57
2021/07/02 06:33:04;;;;;;;11.60;6.82;;;;;;;0.01;0.00;59042.03;10316515;28;20044;-56
2021/07/02 06:38:03;;;;;;;12.07;7.10;;;;;;;0.01;0.00;59042.03;10317813;28;20040;-56
2021/07/02 06:43:02;;;;;;;15.40;7.90;;;;;;;0.01;0.00;59042.03;10316762;28;20067;-56
2021/07/02 06:48:03;;;;;;;11.50;5.93;;;;;;;0.01;0.00;59042.03;10316186;28;20502;-57
2021/07/02 06:53:04;;;;;;;12.30;7.25;;;;;;;0.01;0.00;59042.03;10316819;28;20043;-57
2021/07/02 06:58:04;;;;;;;8.75;6.90;;;;;;;0.01;0.00;59042.03;10316389;28;20052;-56
2021/07/02 07:03:03;;;;;;;11.23;7.35;;;;;;;0.01;0.00;59042.03;10317058;28;20052;-57
2021/07/02 07:08:04;;;;;;;9.85;8.50;;;;;;;0.01;0.00;59042.03;10316359;28;20075;-57
2021/07/02 07:13:05;;;;;;;11.70;6.85;;;;;;;0.01;0.00;59042.03;10316180;28;20087;-58
2021/07/02 07:18:04;;;;;;;9.32;6.68;;;;;;;0.01;0.00;59042.03;10315818;28;20413;-57
2021/07/02 07:23:04;;;;;;;13.23;6.63;;;;;;;0.01;0.00;59042.03;10315945;28;20063;-58
2021/07/02 07:28:04;;;;;;;9.95;6.57;;;;;;;0.01;0.00;59042.03;10315655;28;20076;-58
2021/07/02 07:33:03;;;;;;;12.10;7.22;;;;;;;0.01;0.00;59042.03;10315768;28;20040;-58
2021/07/02 07:38:01;;;;;;;11.43;6.15;;;;;;;0.01;0.00;59042.03;10315663;28;20055;-58
2021/07/02 07:43:02;;;;;;;17.85;7.60;;;;;;;0.01;0.00;59042.03;10323888;28;20075;-58
2021/07/02 07:48:01;;;;;;;11.93;7.10;;;;;;;0.01;0.00;59042.03;10323655;28;20080;-57
2021/07/02 07:53:00;;;;;;;12.35;8.65;;;;;;;0.01;0.00;59042.03;10323550;28;20076;-57
2021/07/02 07:57:59;;;;;;;10.20;6.32;;;;;;;0.01;0.00;59042.03;10323003;28;20088;-57
2021/07/02 08:03:00;;;;;;;13.80;7.70;;;;;;;0.01;0.00;59042.03;10304682;28;20040;-57
2021/07/02 08:07:59;;;;;;;6.28;5.40;;;;;;;0.01;0.00;59042.03;10322833;28;20087;-57
2021/07/02 08:12:58;;;;;;;13.20;6.60;;;;;;;0.01;0.00;59042.03;10322616;28;20080;-57
2021/07/02 08:17:58;;;;;;;13.35;7.43;;;;;;;0.01;0.00;59042.03;10322727;28;20052;-57
2021/07/02 08:22:57;;;;;;;11.60;6.15;;;;;;;0.01;0.00;59042.03;10321937;28;20041;-57
2021/07/02 08:33:16;;;;;;;7.43;5.43;;;;;;;0.01;0.00;59042.03;10322211;28;20040;-58
2021/07/02 08:38:16;;;;;;;7.27;4.80;;;;;;;0.01;0.00;59042.03;10321623;28;20440;-58
2021/07/02 08:43:14;;;;;;;5.60;4.03;;;;;;;0.01;0.00;59042.03;10321685;28;20056;-57
2021/07/02 08:48:19;;;;;;;7.68;4.20;;;;;;;0.01;0.00;59042.03;10321593;28;20323;-58
2021/07/02 08:53:18;;;;;;;6.88;4.65;;;;;;;0.01;0.00;59042.03;10319841;28;20076;-58
2021/07/02 08:58:17;;;;;;;6.07;4.05;;;;;;;0.01;0.00;59042.03;10321312;28;20071;-58
2021/07/02 09:03:28;;;;;;;4.20;3.55;;;;;;;0.01;0.00;59042.03;10320413;28;20056;-58
2021/07/02 09:08:26;;;;;;;6.20;3.65;;;;;;;0.01;0.00;59042.03;10320521;28;20744;-58
2021/07/02 09:13:40;;;;;;;7.25;4.55;;;;;;;0.01;0.00;59042.03;10320236;28;20059;-58
2021/07/02 09:18:40;;;;;;;5.60;3.37;;;;;;;0.01;0.00;59042.03;10320598;28;20078;-58
2021/07/02 09:23:39;;;;;;;5.65;3.70;;;;;;;0.01;0.00;59042.03;10319858;28;20072;-58
2021/07/02 09:28:38;;;;;;;6.22;3.65;;;;;;;0.01;0.00;59042.03;10320140;28;20045;-58
2021/07/02 09:33:37;;;;;;;5.50;3.97;;;;;;;0.01;0.00;59042.03;10319272;28;20083;-58
2021/07/02 09:38:40;;;;;;;6.47;3.83;;;;;;;0.01;0.00;59042.03;10319469;28;20052;-58
2021/07/02 09:43:39;;;;;;;9.05;3.55;;;;;;;0.01;0.00;59042.03;10319002;28;20190;-58
2021/07/02 09:48:41;;;;;;;5.15;3.20;;;;;;;0.01;0.00;59042.03;10318690;28;20382;-58
2021/07/02 09:53:42;;;;;;;7.30;3.70;;;;;;;0.01;0.00;59042.03;10319328;28;20056;-58
2021/07/02 09:58:42;;;;;;;4.38;3.38;;;;;;;0.01;0.00;59042.03;10318335;28;20520;-58
2021/07/02 10:03:44;;;;;;;6.93;3.25;;;;;;;0.01;0.00;59042.03;10317764;28;20044;-58
2021/07/02 10:08:44;;;;;;;4.97;3.08;;;;;;;0.01;0.00;59042.03;10318403;28;20080;-58
2021/07/02 10:13:45;;;;;;;7.55;3.75;;;;;;;0.01;0.00;59042.03;10318348;28;20037;-58
2021/07/02 10:18:48;;;;;;;4.20;3.33;;;;;;;0.01;0.00;59042.03;10317657;28;20072;-58
2021/07/02 10:23:49;;;;;;;3.77;3.37;;;;;;;0.01;0.00;59042.03;10318159;28;20394;-58
2021/07/02 10:28:48;;;;;;;4.85;3.53;;;;;;;0.01;0.00;59042.03;10317595;28;20076;-58
2021/07/02 10:33:50;;;;;;;6.72;3.65;;;;;;;0.01;0.00;59042.03;10317122;28;20060;-59
2021/07/02 10:38:52;;;;;;;4.40;3.95;;;;;;;0.01;0.00;59042.03;10317617;28;20056;-58
2021/07/02 10:44:06;;;;;;;4.22;3.67;;;;;;;0.01;0.00;59042.03;10317120;28;20040;-58
2021/07/02 10:49:06;;;;;;;8.07;3.58;;;;;;;0.01;0.00;59042.03;10317243;28;20406;-58
2021/07/02 10:54:40;;;;;;;8.13;3.33;;;;;;;0.01;0.00;59042.03;10316628;28;20052;-58
2021/07/02 11:00:02;;;;;;;6.22;3.17;;;;;;;0.01;0.00;59042.03;10316422;28;20129;-58
2021/07/02 11:05:01;;;;;;;6.93;3.47;;;;;;;0.01;0.00;59042.03;10316267;28;20040;-58
2021/07/02 11:10:04;;;;;;;4.03;3.63;;;;;;;0.01;0.00;59042.03;10316160;28;20048;-58
2021/07/02 11:15:17;;;;;;;4.80;3.80;;;;;;;0.01;0.00;59042.03;10316411;28;20055;-58
2021/07/02 11:20:29;;;;;;;4.70;3.40;;;;;;;0.01;0.00;59042.03;10316383;28;20600;-58
2021/07/02 11:25:36;;;;;;;3.85;3.45;;;;;;;0.01;0.00;59042.03;10316497;28;20079;-58
2021/07/02 11:30:37;;;;;;;4.80;3.00;;;;;;;0.01;0.00;59042.03;10315343;28;20075;-58
2021/07/02 11:35:37;;;;;;;6.03;3.35;;;;;;;0.01;0.00;59042.03;10315291;28;20060;-58
2021/07/02 11:40:39;;;;;;;8.55;3.55;;;;;;;0.01;0.00;59042.03;10316758;28;20374;-58
2021/07/02 11:45:51;;;;;;;3.67;3.38;;;;;;;0.01;0.00;59042.03;10315037;28;20049;-58
2021/07/02 11:50:53;;;;;;;5.45;3.50;;;;;;;0.01;0.00;59042.03;10315692;28;20480;-58
2021/07/02 11:56:03;;;;;;;3.40;3.10;;;;;;;0.01;0.00;59042.03;10316028;28;20044;-59
2021/07/02 12:01:05;;;;;;;4.93;3.47;;;;;;;0.01;0.00;59042.03;10315983;28;20048;-58
2021/07/02 12:06:05;;;;;;;7.43;3.13;;;;;;;0.01;0.00;59042.03;10316012;28;20048;-58
2021/07/02 12:11:07;;;;;;;7.82;4.00;;;;;;;0.01;0.00;59042.03;10296704;28;20083;-58
2021/07/02 12:16:08;;;;;;;7.50;4.03;;;;;;;0.01;0.00;59042.03;10315800;28;20041;-57
2021/07/02 12:21:09;;;;;;;6.35;2.95;;;;;;;0.01;0.00;59042.03;10315004;28;20048;-57
2021/07/02 12:26:16;;;;;;;4.88;3.25;;;;;;;0.01;0.00;59042.03;10316810;28;20155;-58
2021/07/02 12:31:19;;;;;;;4.88;2.65;;;;;;;0.01;0.00;59042.03;10322255;28;20095;-57
2021/07/02 12:36:18;;;;;;;;;;;;;;;0.01;0.00;59042.03;10323450;28;20052;-58
2021/07/02 12:41:18;;;;;;;7.43;2.40;;;;;;;0.01;0.00;59042.03;10321996;28;19920;-58
2021/07/02 12:46:17;;;;;;;4.95;2.30;;;;;;;0.01;0.00;59042.03;10321355;28;20059;-58
2021/07/02 12:51:33;;;;;;;6.20;2.30;;;;;;;0.01;0.00;59042.03;10322257;28;20067;-58
2021/07/02 12:56:37;;;;;;;7.22;2.28;;;;;;;0.01;0.00;59042.03;10322132;28;20044;-58
2021/07/02 13:01:35;;;;;;;3.90;2.20;;;;;;;0.01;0.00;59042.03;10320195;28;20036;-58
2021/07/02 13:06:35;;;;;;;6.20;1.90;;;;;;;0.01;0.00;59042.03;10320731;28;20406;-58
2021/07/02 13:11:34;;;;;;;3.63;2.20;;;;;;;0.01;0.00;59042.03;10320634;28;20048;-58
2021/07/02 13:16:50;;;;;;;7.13;2.20;;;;;;;0.01;0.00;59042.03;10319489;28;20048;-57
2021/07/02 13:21:48;;;;;;;3.63;1.70;;;;;;;0.01;0.00;59042.03;10320798;28;20045;-58
2021/07/02 13:26:57;;;;;;;5.82;2.08;;;;;;;0.01;0.00;59042.03;10320323;28;20060;-58
2021/07/02 13:32:24;;;;;;;6.45;1.80;;;;;;;0.01;0.00;59042.03;10320953;28;20072;-57
2021/07/02 13:37:27;;;;;;;5.30;2.00;;;;;;;0.01;0.00;59042.03;10320581;28;20040;-58
2021/07/02 13:42:29;;;;;;;4.75;1.73;;;;;;;0.01;0.00;59042.03;10319983;28;20051;-58
2021/07/02 13:47:31;;;;;;;8.68;2.22;;;;;;;0.01;0.00;59042.03;10321004;28;20060;-58
2021/07/02 13:52:32;;;;;;;4.35;1.80;;;;;;;0.01;0.00;59042.03;10319034;28;20072;-59
2021/07/02 13:57:31;;;;;;;5.55;1.95;;;;;;;0.01;0.00;59042.03;10320061;28;20041;-58
2021/07/02 14:02:31;;;;;;;4.10;1.85;;;;;;;0.01;0.00;59042.03;10319836;28;20056;-59
2021/07/02 14:07:30;;;;;;;5.65;2.40;;;;;;;0.01;0.00;59042.03;10319708;28;20051;-59
2021/07/02 14:12:29;;;;;;;7.47;1.70;;;;;;;0.01;0.00;59042.03;10319475;28;20075;-58
2021/07/02 14:17:27;;;;;;;1.83;1.65;;;;;;;0.01;0.00;59042.03;10318281;28;20067;-59
2021/07/02 14:22:27;;;;;;;6.38;1.80;;;;;;;0.01;0.00;59042.03;10317956;28;20045;-59
2021/07/02 14:27:26;;;;;;;4.70;2.28;;;;;;;0.01;0.00;59042.03;10317244;28;20055;-56
2021/07/02 14:32:28;;;;;;;5.47;1.85;;;;;;;0.01;0.00;59042.03;10308223;28;20075;-56
2021/07/02 14:37:28;;;;;;;3.78;1.40;;;;;;;0.01;0.00;59042.03;10312980;28;20076;-54
2021/07/02 14:42:27;;;;;;;8.43;2.15;;;;;;;0.01;0.00;59042.03;10316934;28;20059;-55
2021/07/02 14:47:26;;;;;;;1.50;1.17;;;;;;;0.01;0.00;59042.03;10318273;28;20053;-56
2021/07/02 14:52:25;;;;;;;4.97;1.38;;;;;;;0.01;0.00;59042.03;10316683;28;20072;-54
2021/07/02 14:57:26;;;;;;;3.92;1.80;;;;;;;0.01;0.00;59042.03;10316240;28;20068;-57
2021/07/02 15:02:25;;;;;;;6.55;1.35;;;;;;;0.01;0.00;59042.03;10294553;28;20531;-54
2021/07/02 15:07:26;;;;;;;3.50;2.22;;;;;;;0.01;0.00;59042.03;10302895;28;20060;-49
2021/07/02 15:12:26;;;;;;;3.75;1.65;;;;;;;0.01;0.00;59042.03;10311239;28;20510;-56
2021/07/02 15:17:25;;;;;;;4.65;1.83;;;;;;;0.01;0.00;59042.03;10305929;28;20064;-56
2021/07/02 15:22:24;;;;;;;4.75;2.60;;;;;;;0.01;0.00;59042.03;10313247;28;20060;-57
2021/07/02 15:27:23;;;;;;;6.60;3.08;;;;;;;0.01;0.00;59042.03;10308986;28;20080;-57
2021/07/02 15:32:29;;;;;;;6.68;2.58;;;;;;;0.01;0.00;59042.03;10312771;28;20075;-57
2021/07/02 15:37:28;;;;;;;9.43;3.92;;;;;;;0.01;0.00;59042.03;10314837;28;20084;-56
2021/07/02 15:42:27;;;;;;;9.55;3.55;;;;;;;0.01;0.00;59042.03;10311460;28;20099;-57
2021/07/02 15:47:27;;;;;;;9.00;3.65;;;;;;;0.01;0.00;59042.03;10313422;28;20458;-53
2021/07/02 15:52:25;;;;;;;7.10;3.28;;;;;;;0.01;0.00;59042.03;10305972;28;20108;-57
2021/07/02 15:57:24;;;;;;;6.32;3.10;;;;;;;0.01;0.00;59042.03;10310949;28;20060;-57
2021/07/02 16:02:23;;;;;;;6.00;2.95;;;;;;;0.01;0.00;59042.03;10315649;28;20049;-58
2021/07/02 16:07:23;;;;;;;4.60;3.50;;;;;;;0.01;0.00;59042.03;10320152;28;20047;-52
2021/07/02 16:12:22;;;;;;;5.22;4.32;;;;;;;0.01;0.00;59042.03;10322486;28;20076;-54
2021/07/02 16:17:21;;;;;;;9.00;4.53;;;;;;;0.01;0.00;59042.03;10321960;28;20079;-52
2021/07/02 16:22:20;;;;;;;6.20;3.15;;;;;;;0.01;0.00;59042.03;10321749;28;20080;-56
2021/07/02 16:27:20;;;;;;;8.52;3.92;;;;;;;0.01;0.00;59042.03;10322485;28;20071;-57
2021/07/02 16:32:19;;;;;;;7.38;4.70;;;;;;;0.01;0.00;59042.03;10320653;28;20068;-57
2021/07/02 16:37:18;;;;;;;8.32;3.67;;;;;;;0.01;0.00;59042.03;10320050;28;20057;-57
2021/07/02 16:42:17;;;;;;;9.45;3.30;;;;;;;0.01;0.00;59042.03;10321311;28;20055;-50
2021/07/02 16:47:17;;;;;;;8.27;4.03;;;;;;;0.01;0.00;59042.03;10320012;28;20048;-57
2021/07/02 16:52:16;;;;;;;8.35;3.72;;;;;;;0.01;0.00;59042.03;10319251;28;20091;-58
2021/07/02 16:57:14;;;;;;;4.60;3.25;;;;;;;0.01;0.00;59042.03;10294823;28;20072;-58
2021/07/02 17:02:17;;;;;;;4.28;3.53;;;;;;;0.01;0.00;59042.03;10320359;28;20068;-56
2021/07/02 17:07:18;;;;;;;5.88;3.95;;;;;;;0.01;0.00;59042.03;10318760;28;20071;-56
2021/07/02 17:12:17;;;;;;;6.35;3.85;;;;;;;0.01;0.00;59042.03;10320167;28;20072;-56
2021/07/02 17:17:18;;;;;;;7.15;4.28;;;;;;;0.01;0.00;59042.03;10319679;28;20513;-52
2021/07/02 17:22:19;;;;;;;10.05;3.42;;;;;;;0.01;0.00;59042.03;10321403;28;20040;-57
2021/07/02 17:27:18;;;;;;;7.95;4.15;;;;;;;0.01;0.00;59042.03;10314170;28;20071;-53
2021/07/02 17:32:17;;;;;;;5.95;3.03;;;;;;;0.01;0.00;59042.03;10318755;28;20198;-56
2021/07/02 17:37:17;;;;;;;5.60;3.65;;;;;;;0.01;0.00;59042.03;10319250;28;20041;-57
2021/07/02 17:42:17;;;;;;;6.00;3.35;;;;;;;0.01;0.00;59042.03;10317929;28;20429;-57
2021/07/02 17:47:15;;;;;;;7.70;3.50;;;;;;;0.01;0.00;59042.03;10316768;28;20095;-52
2021/07/02 17:52:14;;;;;;;8.55;3.00;;;;;;;0.01;0.00;59042.03;10319013;28;20121;-52
2021/07/02 17:57:15;;;;;;;6.80;4.18;;;;;;;0.01;0.00;59042.03;10315773;28;20051;-56
2021/07/02 18:02:14;;;;;;;8.90;3.53;;;;;;;0.01;0.00;59042.03;10318827;28;20044;-56
2021/07/02 18:07:13;;;;;;;4.68;3.35;;;;;;;0.01;0.00;59042.03;10317857;28;20055;-57
2021/07/02 18:12:12;;;;;;;7.20;4.13;;;;;;;0.01;0.00;59042.03;10318410;28;20091;-57
2021/07/02 18:17:12;;;;;;;9.23;4.82;;;;;;;0.01;0.00;59042.03;10309401;28;20063;-57
2021/07/02 18:22:12;;;;;;;11.57;4.60;;;;;;;0.01;0.00;59042.03;10316744;28;20068;-59
2021/07/02 18:27:10;;;;;;;7.10;3.80;;;;;;;0.01;0.00;59042.03;10316743;28;20045;-59
2021/07/02 18:32:11;;;;;;;11.25;4.28;;;;;;;0.01;0.00;59042.03;10316936;28;20072;-59
2021/07/02 18:37:11;;;;;;;6.80;3.78;;;;;;;0.01;0.00;59042.03;10312942;28;20080;-59
2021/07/02 18:42:10;;;;;;;8.70;5.13;;;;;;;0.01;0.00;59042.03;10314982;28;20542;-60
2021/07/02 18:47:09;;;;;;;9.52;4.03;;;;;;;0.01;0.00;59042.03;10315392;28;20076;-58
2021/07/02 18:52:08;;;;;;;11.77;4.57;;;;;;;0.01;0.00;59042.03;10316790;28;20087;-57
2021/07/02 18:57:08;;;;;;;8.05;4.95;;;;;;;0.01;0.00;59042.03;10315486;28;20041;-57
2021/07/02 19:02:07;;;;;;;7.32;5.85;;;;;;;0.01;0.00;59042.03;10315159;28;20091;-59
2021/07/02 19:07:06;;;;;;;7.55;4.50;;;;;;;0.01;0.00;59042.03;10315204;28;20047;-58
2021/07/02 19:12:05;;;;;;;11.60;5.00;;;;;;;0.01;0.00;59042.03;10317038;28;20076;-58
2021/07/02 19:17:06;;;;;;;17.75;12.52;;;;;;;0.01;0.00;59042.03;10316458;28;20049;-58
2021/07/02 19:22:05;;;;;;;11.43;8.20;;;;;;;0.01;0.00;59042.03;10317061;28;20040;-58
2021/07/02 19:27:07;;;;;;;11.57;6.32;;;;;;;0.01;0.00;59042.03;10313191;28;20091;-58
2021/07/02 19:32:07;;;;;;;7.30;4.90;;;;;;;0.01;0.00;59042.03;10313736;28;20091;-59
2021/07/02 19:37:06;;;;;;;8.38;5.10;;;;;;;0.01;0.00;59042.03;10303854;28;20048;-59
2021/07/02 19:42:06;;;;;;;4.93;3.80;;;;;;;0.01;0.00;59042.03;10329044;28;20544;-59
2021/07/02 19:47:07;;;;;;;4.50;2.97;;;;;;;0.01;0.00;59042.03;10329579;28;20055;-59
2021/07/02 19:52:06;;;;;;;8.63;2.95;;;;;;;0.01;0.00;59042.03;10327896;28;20087;-58
2021/07/02 19:57:06;;;;;;;6.05;2.75;;;;;;;0.01;0.00;59042.03;10314417;28;20763;-58
2021/07/02 20:02:06;;;;;;;11.45;3.97;;;;;;;0.01;0.00;59042.03;10322550;28;20327;-58
2021/07/02 20:07:07;;;;;;;8.10;3.17;;;;;;;0.01;0.00;59042.03;10321891;28;20064;-59
2021/07/02 20:12:06;;;;;;;5.70;2.95;;;;;;;0.01;0.00;59042.03;10327450;28;20076;-59
2021/07/02 20:17:05;;;;;;;5.05;2.92;;;;;;;0.01;0.00;59042.03;10327593;28;20490;-59
2021/07/02 20:22:05;;;;;;;4.47;2.50;;;;;;;0.01;0.00;59042.03;10327532;28;20506;-59
2021/07/02 20:27:05;;;;;;;5.97;2.55;;;;;;;0.01;0.00;59042.03;10323821;28;20079;-58
2021/07/02 20:32:05;;;;;;;3.97;2.42;;;;;;;0.01;0.00;59042.03;10320434;28;20076;-59
2021/07/02 20:37:06;;;;;;;4.22;2.42;;;;;;;0.01;0.00;59042.03;10320157;28;20455;-59
2021/07/02 20:42:05;;;;;;;12.52;1.83;;;;;;;0.01;0.00;59042.03;10320803;28;20068;-59
2021/07/02 20:47:04;;;;;;;2.60;2.00;;;;;;;0.01;0.00;59042.03;10324457;28;20061;-59
2021/07/02 20:52:04;;;;;;;7.05;2.30;;;;;;;0.01;0.00;59042.03;10321443;28;20091;-58
2021/07/02 20:57:05;;;;;;;8.50;2.03;;;;;;;0.01;0.00;59042.03;10302652;28;20055;-59
2021/07/02 21:02:05;;;;;;;4.20;2.10;;;;;;;0.01;0.00;59042.03;10320433;28;20048;-59
2021/07/02 21:07:04;;;;;;;3.75;1.90;;;;;;;0.01;0.00;59042.03;10319212;28;20051;-59
2021/07/02 21:12:07;;;;;;;4.78;1.95;;;;;;;0.01;0.00;59042.03;10319477;28;20076;-59
2021/07/02 21:17:06;;;;;;;9.60;1.87;;;;;;;0.01;0.00;59042.03;10321176;28;20036;-59
2021/07/02 21:22:05;;;;;;;4.18;2.15;;;;;;;0.01;0.00;59042.03;10321049;28;20049;-59
2021/07/02 21:27:05;;;;;;;4.68;1.95;;;;;;;0.01;0.00;59042.03;10320687;28;20053;-59
2021/07/02 21:32:05;;;;;;;9.35;1.52;;;;;;;0.01;0.00;59042.03;10319287;28;20098;-59
2021/07/02 21:37:04;;;;;;;6.30;2.40;;;;;;;0.01;0.00;59042.03;10320175;28;20056;-59
2021/07/02 21:42:05;;;;;;;4.70;2.00;;;;;;;0.01;0.00;59042.03;10320380;28;20470;-59
2021/07/02 21:47:04;;;;;;;3.65;1.85;;;;;;;0.01;0.00;59042.03;10319050;28;20056;-59
2021/07/02 21:52:03;;;;;;;5.78;2.10;;;;;;;0.01;0.00;59042.03;10319915;28;20080;-59
2021/07/02 21:57:02;;;;;;;2.42;1.83;;;;;;;0.01;0.00;59042.03;10319589;28;20044;-59
2021/07/02 22:02:03;;;;;;;6.88;2.17;;;;;;;0.01;0.00;59042.03;10319047;28;20044;-59
2021/07/02 22:07:02;;;;;;;7.05;2.00;;;;;;;0.01;0.00;59042.03;10317631;28;20521;-59
2021/07/02 22:12:01;;;;;;;3.03;1.70;;;;;;;0.01;0.00;59042.03;10318646;28;20417;-60
2021/07/02 22:17:00;;;;;;;3.58;1.60;;;;;;;0.01;0.00;59042.03;10317765;28;20490;-59
2021/07/02 22:22:00;;;;;;;11.02;2.05;;;;;;;0.01;0.00;59042.03;10318781;28;20502;-59
2021/07/02 22:26:59;;;;;;;6.63;1.65;;;;;;;0.01;0.00;59042.03;10317874;28;20049;-59
2021/07/02 22:31:58;;;;;;;11.07;1.95;;;;;;;0.01;0.00;59042.03;10316310;28;20052;-58
2021/07/02 22:36:57;;;;;;;3.90;1.80;;;;;;;0.01;0.00;59042.03;10316897;28;20095;-58
2021/07/02 22:41:57;;;;;;;1.95;1.45;;;;;;;0.01;0.00;59042.03;10316616;28;20080;-59
2021/07/02 22:46:55;;;;;;;1.90;1.40;;;;;;;0.01;0.00;59042.03;10317498;28;20052;-59
2021/07/02 22:51:54;;;;;;;2.28;1.73;;;;;;;0.01;0.00;59042.03;10316857;28;20409;-60
2021/07/02 22:57:02;;;;;;;4.55;1.58;;;;;;;0.01;0.00;59042.03;10317558;28;20083;-60
2021/07/02 23:02:04;;;;;;;3.92;1.70;;;;;;;0.01;0.00;59042.03;10316617;28;20060;-59
2021/07/02 23:07:04;;;;;;;4.90;2.00;;;;;;;0.01;0.00;59042.03;10317490;28;20478;-59
2021/07/02 23:12:03;;;;;;;2.83;1.27;;;;;;;0.01;0.00;59042.03;10316674;28;20052;-59
2021/07/02 23:17:03;;;;;;;7.18;1.88;;;;;;;0.01;0.00;59042.03;10317196;28;20072;-59
2021/07/02 23:22:02;;;;;;;6.43;0.98;;;;;;;0.01;0.00;59042.03;10316315;28;20051;-59
2021/07/02 23:27:01;;;;;;;4.72;1.83;;;;;;;0.01;0.00;59042.03;10316124;28;20049;-59
2021/07/02 23:32:00;;;;;;;5.65;1.50;;;;;;;0.01;0.00;59042.03;10315172;28;20494;-59
2021/07/02 23:37:00;;;;;;;3.53;1.70;;;;;;;0.01;0.00;59042.03;10316461;28;20147;-60
2021/07/02 23:41:59;;;;;;;3.13;1.42;;;;;;;0.01;0.00;59042.03;10316556;28;20076;-59
2021/07/02 23:46:57;;;;;;;3.85;1.52;;;;;;;0.01;0.00;59042.03;10315883;28;20056;-59
2021/07/02 23:51:56;;;;;;;5.63;1.50;;;;;;;0.01;0.00;59042.03;10316474;28;20049;-59